sensor_id;sensor_type;location;lat;lon;timestamp;P1;durP1;ratioP1;P2;durP2;ratioP2
27303;SDS011;14791;52.392;13.092;2023-04-24T00:00:56;2.27;;;2.27;;
27303;SDS011;14791;52.392;13.092;2023-04-24T00:03:25;2.73;;;2.63;;
27303;SDS011;14791;52.392;13.092;2023-04-24T00:05:55;2.40;;;2.40;;
27303;SDS011;14791;52.392;13.092;2023-04-24T00:08:23;2.40;;;2.25;;
27303;SDS011;14791;52.392;13.092;2023-04-24T00:10:52;2.40;;;2.30;;
27303;SDS011;14791;52.392;13.092;2023-04-24T00:13:21;2.10;;;2.10;;
27303;SDS011;14791;52.392;13.092;2023-04-24T00:15:50;2.37;;;2.37;;
27303;SDS011;14791;52.392;13.092;2023-04-24T00:18:19;2.60;;;2.58;;
27303;SDS011;14791;52.392;13.092;2023-04-24T00:20:48;2.87;;;2.77;;
27303;SDS011;14791;52.392;13.092;2023-04-24T00:23:17;2.62;;;2.52;;
27303;SDS011;14791;52.392;13.092;2023-04-24T00:25:46;2.75;;;2.65;;
27303;SDS011;14791;52.392;13.092;2023-04-24T00:28:15;2.30;;;2.30;;
27303;SDS011;14791;52.392;13.092;2023-04-24T00:30:43;2.22;;;2.22;;
27303;SDS011;14791;52.392;13.092;2023-04-24T00:33:12;2.75;;;2.65;;
27303;SDS011;14791;52.392;13.092;2023-04-24T00:35:42;2.80;;;2.70;;
27303;SDS011;14791;52.392;13.092;2023-04-24T00:38:11;2.20;;;2.20;;
27303;SDS011;14791;52.392;13.092;2023-04-24T00:40:39;2.50;;;2.50;;
27303;SDS011;14791;52.392;13.092;2023-04-24T00:43:09;2.70;;;2.60;;
27303;SDS011;14791;52.392;13.092;2023-04-24T00:45:38;2.08;;;1.98;;
27303;SDS011;14791;52.392;13.092;2023-04-24T00:48:08;2.30;;;2.30;;
27303;SDS011;14791;52.392;13.092;2023-04-24T00:50:39;2.30;;;2.30;;
27303;SDS011;14791;52.392;13.092;2023-04-24T00:53:09;2.67;;;2.67;;
27303;SDS011;14791;52.392;13.092;2023-04-24T00:55:38;2.35;;;2.35;;
27303;SDS011;14791;52.392;13.092;2023-04-24T00:58:07;2.50;;;2.42;;
27303;SDS011;14791;52.392;13.092;2023-04-24T01:00:37;2.22;;;2.22;;
27303;SDS011;14791;52.392;13.092;2023-04-24T01:03:06;2.30;;;2.20;;
27303;SDS011;14791;52.392;13.092;2023-04-24T01:05:35;2.45;;;2.45;;
27303;SDS011;14791;52.392;13.092;2023-04-24T01:08:05;2.42;;;2.42;;
27303;SDS011;14791;52.392;13.092;2023-04-24T01:10:35;2.70;;;2.60;;
27303;SDS011;14791;52.392;13.092;2023-04-24T01:13:13;2.30;;;2.30;;
27303;SDS011;14791;52.392;13.092;2023-04-24T01:15:37;2.55;;;2.52;;
27303;SDS011;14791;52.392;13.092;2023-04-24T01:18:07;2.35;;;2.35;;
27303;SDS011;14791;52.392;13.092;2023-04-24T01:20:37;2.58;;;2.58;;
27303;SDS011;14791;52.392;13.092;2023-04-24T01:23:12;2.65;;;2.55;;
27303;SDS011;14791;52.392;13.092;2023-04-24T01:25:40;3.00;;;2.90;;
27303;SDS011;14791;52.392;13.092;2023-04-24T01:28:10;2.70;;;2.65;;
27303;SDS011;14791;52.392;13.092;2023-04-24T01:30:41;2.83;;;2.72;;
27303;SDS011;14791;52.392;13.092;2023-04-24T01:33:10;2.33;;;2.33;;
27303;SDS011;14791;52.392;13.092;2023-04-24T01:35:39;2.90;;;2.80;;
27303;SDS011;14791;52.392;13.092;2023-04-24T01:38:09;2.85;;;2.83;;
27303;SDS011;14791;52.392;13.092;2023-04-24T01:40:38;2.97;;;2.87;;
27303;SDS011;14791;52.392;13.092;2023-04-24T01:43:07;2.60;;;2.47;;
27303;SDS011;14791;52.392;13.092;2023-04-24T01:45:36;2.87;;;2.77;;
27303;SDS011;14791;52.392;13.092;2023-04-24T01:48:05;2.40;;;2.30;;
27303;SDS011;14791;52.392;13.092;2023-04-24T01:50:34;2.72;;;2.62;;
27303;SDS011;14791;52.392;13.092;2023-04-24T01:53:03;2.58;;;2.50;;
27303;SDS011;14791;52.392;13.092;2023-04-24T01:55:32;2.80;;;2.70;;
27303;SDS011;14791;52.392;13.092;2023-04-24T01:58:01;3.33;;;3.23;;
27303;SDS011;14791;52.392;13.092;2023-04-24T02:00:31;2.15;;;2.15;;
27303;SDS011;14791;52.392;13.092;2023-04-24T02:03:00;2.75;;;2.75;;
27303;SDS011;14791;52.392;13.092;2023-04-24T02:05:29;2.72;;;2.72;;
27303;SDS011;14791;52.392;13.092;2023-04-24T02:07:57;2.58;;;2.50;;
27303;SDS011;14791;52.392;13.092;2023-04-24T02:10:26;2.75;;;2.67;;
27303;SDS011;14791;52.392;13.092;2023-04-24T02:12:55;2.30;;;2.20;;
27303;SDS011;14791;52.392;13.092;2023-04-24T02:15:26;2.55;;;2.55;;
27303;SDS011;14791;52.392;13.092;2023-04-24T02:17:56;3.15;;;3.05;;
27303;SDS011;14791;52.392;13.092;2023-04-24T02:20:25;3.10;;;3.00;;
27303;SDS011;14791;52.392;13.092;2023-04-24T02:22:54;2.33;;;2.30;;
27303;SDS011;14791;52.392;13.092;2023-04-24T02:25:23;2.80;;;2.70;;
27303;SDS011;14791;52.392;13.092;2023-04-24T02:27:53;2.77;;;2.57;;
27303;SDS011;14791;52.392;13.092;2023-04-24T02:30:22;3.00;;;2.90;;
27303;SDS011;14791;52.392;13.092;2023-04-24T02:32:52;2.43;;;2.43;;
27303;SDS011;14791;52.392;13.092;2023-04-24T02:35:22;3.20;;;3.10;;
27303;SDS011;14791;52.392;13.092;2023-04-24T02:37:51;2.90;;;2.90;;
27303;SDS011;14791;52.392;13.092;2023-04-24T02:40:20;3.00;;;2.90;;
27303;SDS011;14791;52.392;13.092;2023-04-24T02:42:48;3.10;;;3.00;;
27303;SDS011;14791;52.392;13.092;2023-04-24T02:45:17;2.37;;;2.37;;
27303;SDS011;14791;52.392;13.092;2023-04-24T02:47:46;3.23;;;3.07;;
27303;SDS011;14791;52.392;13.092;2023-04-24T02:50:15;3.35;;;3.25;;
27303;SDS011;14791;52.392;13.092;2023-04-24T02:52:44;2.50;;;2.50;;
27303;SDS011;14791;52.392;13.092;2023-04-24T02:55:13;2.50;;;2.50;;
27303;SDS011;14791;52.392;13.092;2023-04-24T02:57:42;2.67;;;2.57;;
27303;SDS011;14791;52.392;13.092;2023-04-24T03:00:11;2.70;;;2.60;;
27303;SDS011;14791;52.392;13.092;2023-04-24T03:02:41;2.60;;;2.60;;
27303;SDS011;14791;52.392;13.092;2023-04-24T03:05:10;2.60;;;2.50;;
27303;SDS011;14791;52.392;13.092;2023-04-24T03:07:39;3.15;;;3.02;;
27303;SDS011;14791;52.392;13.092;2023-04-24T03:10:08;2.12;;;2.12;;
27303;SDS011;14791;52.392;13.092;2023-04-24T03:12:37;2.80;;;2.70;;
27303;SDS011;14791;52.392;13.092;2023-04-24T03:15:06;3.17;;;3.08;;
27303;SDS011;14791;52.392;13.092;2023-04-24T03:17:37;3.22;;;3.02;;
27303;SDS011;14791;52.392;13.092;2023-04-24T03:20:06;2.58;;;2.47;;
27303;SDS011;14791;52.392;13.092;2023-04-24T03:22:37;2.87;;;2.80;;
27303;SDS011;14791;52.392;13.092;2023-04-24T03:25:07;3.10;;;3.00;;
27303;SDS011;14791;52.392;13.092;2023-04-24T03:27:37;3.00;;;2.90;;
27303;SDS011;14791;52.392;13.092;2023-04-24T03:30:08;2.90;;;2.80;;
27303;SDS011;14791;52.392;13.092;2023-04-24T03:32:42;2.90;;;2.80;;
27303;SDS011;14791;52.392;13.092;2023-04-24T03:35:12;3.12;;;3.02;;
27303;SDS011;14791;52.392;13.092;2023-04-24T03:37:41;3.12;;;3.02;;
27303;SDS011;14791;52.392;13.092;2023-04-24T03:40:21;3.37;;;3.17;;
27303;SDS011;14791;52.392;13.092;2023-04-24T03:42:50;2.90;;;2.80;;
27303;SDS011;14791;52.392;13.092;2023-04-24T03:45:19;2.20;;;2.20;;
27303;SDS011;14791;52.392;13.092;2023-04-24T03:47:49;2.97;;;2.87;;
27303;SDS011;14791;52.392;13.092;2023-04-24T03:50:18;3.15;;;3.05;;
27303;SDS011;14791;52.392;13.092;2023-04-24T03:52:48;2.67;;;2.67;;
27303;SDS011;14791;52.392;13.092;2023-04-24T03:55:19;2.30;;;2.30;;
27303;SDS011;14791;52.392;13.092;2023-04-24T03:57:48;2.70;;;2.60;;
27303;SDS011;14791;52.392;13.092;2023-04-24T04:00:19;3.12;;;3.02;;
27303;SDS011;14791;52.392;13.092;2023-04-24T04:02:49;3.25;;;3.15;;
27303;SDS011;14791;52.392;13.092;2023-04-24T04:05:18;2.55;;;2.55;;
27303;SDS011;14791;52.392;13.092;2023-04-24T04:07:47;3.15;;;2.95;;
27303;SDS011;14791;52.392;13.092;2023-04-24T04:10:16;2.20;;;2.20;;
27303;SDS011;14791;52.392;13.092;2023-04-24T04:12:45;2.45;;;2.45;;
27303;SDS011;14791;52.392;13.092;2023-04-24T04:15:14;2.10;;;2.10;;
27303;SDS011;14791;52.392;13.092;2023-04-24T04:17:43;2.70;;;2.60;;
27303;SDS011;14791;52.392;13.092;2023-04-24T04:20:13;2.87;;;2.77;;
27303;SDS011;14791;52.392;13.092;2023-04-24T04:22:42;3.27;;;3.17;;
27303;SDS011;14791;52.392;13.092;2023-04-24T04:25:12;2.62;;;2.52;;
27303;SDS011;14791;52.392;13.092;2023-04-24T04:27:42;2.97;;;2.87;;
27303;SDS011;14791;52.392;13.092;2023-04-24T04:30:12;3.05;;;2.95;;
27303;SDS011;14791;52.392;13.092;2023-04-24T04:32:43;3.10;;;3.00;;
27303;SDS011;14791;52.392;13.092;2023-04-24T04:35:13;3.13;;;3.03;;
27303;SDS011;14791;52.392;13.092;2023-04-24T04:37:42;3.17;;;3.08;;
27303;SDS011;14791;52.392;13.092;2023-04-24T04:40:22;3.53;;;3.43;;
27303;SDS011;14791;52.392;13.092;2023-04-24T04:42:53;3.47;;;3.37;;
27303;SDS011;14791;52.392;13.092;2023-04-24T04:45:23;2.80;;;2.70;;
27303;SDS011;14791;52.392;13.092;2023-04-24T04:47:56;2.37;;;2.27;;
27303;SDS011;14791;52.392;13.092;2023-04-24T04:50:25;3.12;;;3.02;;
27303;SDS011;14791;52.392;13.092;2023-04-24T04:52:56;2.37;;;2.37;;
27303;SDS011;14791;52.392;13.092;2023-04-24T04:55:26;2.83;;;2.72;;
27303;SDS011;14791;52.392;13.092;2023-04-24T04:58:06;2.90;;;2.70;;
27303;SDS011;14791;52.392;13.092;2023-04-24T05:00:35;2.63;;;2.53;;
27303;SDS011;14791;52.392;13.092;2023-04-24T05:03:06;2.40;;;2.40;;
27303;SDS011;14791;52.392;13.092;2023-04-24T05:05:35;2.05;;;2.05;;
27303;SDS011;14791;52.392;13.092;2023-04-24T05:08:09;2.25;;;2.15;;
27303;SDS011;14791;52.392;13.092;2023-04-24T05:10:39;1.75;;;1.72;;
27303;SDS011;14791;52.392;13.092;2023-04-24T05:13:09;2.27;;;2.10;;
27303;SDS011;14791;52.392;13.092;2023-04-24T05:15:38;1.70;;;1.70;;
27303;SDS011;14791;52.392;13.092;2023-04-24T05:18:07;1.40;;;1.40;;
27303;SDS011;14791;52.392;13.092;2023-04-24T05:20:37;1.52;;;1.52;;
27303;SDS011;14791;52.392;13.092;2023-04-24T05:23:06;1.62;;;1.52;;
27303;SDS011;14791;52.392;13.092;2023-04-24T05:25:37;1.52;;;1.52;;
27303;SDS011;14791;52.392;13.092;2023-04-24T05:28:08;1.30;;;1.30;;
27303;SDS011;14791;52.392;13.092;2023-04-24T05:30:38;1.37;;;1.37;;
27303;SDS011;14791;52.392;13.092;2023-04-24T05:33:07;1.37;;;1.30;;
27303;SDS011;14791;52.392;13.092;2023-04-24T05:35:36;1.33;;;1.33;;
27303;SDS011;14791;52.392;13.092;2023-04-24T05:38:05;1.40;;;1.40;;
27303;SDS011;14791;52.392;13.092;2023-04-24T05:40:34;1.43;;;1.33;;
27303;SDS011;14791;52.392;13.092;2023-04-24T05:43:03;1.23;;;1.23;;
27303;SDS011;14791;52.392;13.092;2023-04-24T05:45:32;1.15;;;1.15;;
27303;SDS011;14791;52.392;13.092;2023-04-24T05:48:03;1.10;;;1.00;;
27303;SDS011;14791;52.392;13.092;2023-04-24T05:50:32;0.97;;;0.97;;
27303;SDS011;14791;52.392;13.092;2023-04-24T05:53:01;0.90;;;0.90;;
27303;SDS011;14791;52.392;13.092;2023-04-24T05:55:32;1.20;;;1.20;;
27303;SDS011;14791;52.392;13.092;2023-04-24T05:58:02;1.85;;;0.98;;
27303;SDS011;14791;52.392;13.092;2023-04-24T06:00:33;0.88;;;0.85;;
27303;SDS011;14791;52.392;13.092;2023-04-24T06:03:04;0.90;;;0.90;;
27303;SDS011;14791;52.392;13.092;2023-04-24T06:05:34;0.80;;;0.80;;
27303;SDS011;14791;52.392;13.092;2023-04-24T06:08:03;0.90;;;0.82;;
27303;SDS011;14791;52.392;13.092;2023-04-24T06:10:34;0.82;;;0.80;;
27303;SDS011;14791;52.392;13.092;2023-04-24T06:13:04;0.62;;;0.62;;
27303;SDS011;14791;52.392;13.092;2023-04-24T06:15:34;1.00;;;1.00;;
27303;SDS011;14791;52.392;13.092;2023-04-24T06:18:13;0.80;;;0.80;;
27303;SDS011;14791;52.392;13.092;2023-04-24T06:20:42;0.98;;;0.88;;
27303;SDS011;14791;52.392;13.092;2023-04-24T06:23:13;1.45;;;0.80;;
27303;SDS011;14791;52.392;13.092;2023-04-24T06:25:42;0.70;;;0.70;;
27303;SDS011;14791;52.392;13.092;2023-04-24T06:28:12;0.70;;;0.70;;
27303;SDS011;14791;52.392;13.092;2023-04-24T06:30:41;0.57;;;0.57;;
27303;SDS011;14791;52.392;13.092;2023-04-24T06:33:11;0.62;;;0.62;;
27303;SDS011;14791;52.392;13.092;2023-04-24T06:35:40;0.60;;;0.60;;
27303;SDS011;14791;52.392;13.092;2023-04-24T06:38:09;0.50;;;0.50;;
27303;SDS011;14791;52.392;13.092;2023-04-24T06:40:38;1.02;;;0.98;;
27303;SDS011;14791;52.392;13.092;2023-04-24T06:43:07;0.68;;;0.68;;
27303;SDS011;14791;52.392;13.092;2023-04-24T06:45:38;0.85;;;0.85;;
27303;SDS011;14791;52.392;13.092;2023-04-24T06:48:07;1.05;;;1.05;;
27303;SDS011;14791;52.392;13.092;2023-04-24T06:50:36;0.80;;;0.80;;
27303;SDS011;14791;52.392;13.092;2023-04-24T06:53:04;0.80;;;0.80;;
27303;SDS011;14791;52.392;13.092;2023-04-24T06:55:33;1.12;;;0.80;;
27303;SDS011;14791;52.392;13.092;2023-04-24T06:58:04;0.47;;;0.47;;
27303;SDS011;14791;52.392;13.092;2023-04-24T07:00:33;0.40;;;0.40;;
27303;SDS011;14791;52.392;13.092;2023-04-24T07:03:02;0.62;;;0.62;;
27303;SDS011;14791;52.392;13.092;2023-04-24T07:05:34;0.60;;;0.60;;
27303;SDS011;14791;52.392;13.092;2023-04-24T07:08:05;0.45;;;0.45;;
27303;SDS011;14791;52.392;13.092;2023-04-24T07:10:34;0.28;;;0.28;;
27303;SDS011;14791;52.392;13.092;2023-04-24T07:13:03;0.50;;;0.40;;
27303;SDS011;14791;52.392;13.092;2023-04-24T07:15:33;0.40;;;0.40;;
27303;SDS011;14791;52.392;13.092;2023-04-24T07:18:02;0.50;;;0.50;;
27303;SDS011;14791;52.392;13.092;2023-04-24T07:20:31;0.50;;;0.50;;
27303;SDS011;14791;52.392;13.092;2023-04-24T07:23:01;0.40;;;0.40;;
27303;SDS011;14791;52.392;13.092;2023-04-24T07:25:30;0.50;;;0.50;;
27303;SDS011;14791;52.392;13.092;2023-04-24T07:27:58;0.35;;;0.30;;
27303;SDS011;14791;52.392;13.092;2023-04-24T07:30:28;0.30;;;0.30;;
27303;SDS011;14791;52.392;13.092;2023-04-24T07:32:57;0.30;;;0.30;;
27303;SDS011;14791;52.392;13.092;2023-04-24T07:35:26;0.30;;;0.30;;
27303;SDS011;14791;52.392;13.092;2023-04-24T07:37:55;0.57;;;0.57;;
27303;SDS011;14791;52.392;13.092;2023-04-24T07:40:24;0.50;;;0.50;;
27303;SDS011;14791;52.392;13.092;2023-04-24T07:42:54;0.47;;;0.42;;
27303;SDS011;14791;52.392;13.092;2023-04-24T07:45:23;0.50;;;0.50;;
27303;SDS011;14791;52.392;13.092;2023-04-24T07:47:53;0.30;;;0.30;;
27303;SDS011;14791;52.392;13.092;2023-04-24T07:50:22;0.57;;;0.57;;
27303;SDS011;14791;52.392;13.092;2023-04-24T07:52:51;0.35;;;0.35;;
27303;SDS011;14791;52.392;13.092;2023-04-24T07:55:19;0.60;;;0.60;;
27303;SDS011;14791;52.392;13.092;2023-04-24T07:57:48;0.33;;;0.33;;
27303;SDS011;14791;52.392;13.092;2023-04-24T08:00:18;0.30;;;0.30;;
27303;SDS011;14791;52.392;13.092;2023-04-24T08:02:47;0.42;;;0.42;;
27303;SDS011;14791;52.392;13.092;2023-04-24T08:05:16;0.50;;;0.50;;
27303;SDS011;14791;52.392;13.092;2023-04-24T08:07:45;0.57;;;0.50;;
27303;SDS011;14791;52.392;13.092;2023-04-24T08:10:16;0.30;;;0.30;;
27303;SDS011;14791;52.392;13.092;2023-04-24T08:12:45;0.25;;;0.25;;
27303;SDS011;14791;52.392;13.092;2023-04-24T08:15:14;0.40;;;0.40;;
27303;SDS011;14791;52.392;13.092;2023-04-24T08:17:42;0.50;;;0.50;;
27303;SDS011;14791;52.392;13.092;2023-04-24T08:20:12;0.47;;;0.47;;
27303;SDS011;14791;52.392;13.092;2023-04-24T08:22:41;0.78;;;0.45;;
27303;SDS011;14791;52.392;13.092;2023-04-24T08:25:11;0.40;;;0.40;;
27303;SDS011;14791;52.392;13.092;2023-04-24T08:27:40;0.60;;;0.60;;
27303;SDS011;14791;52.392;13.092;2023-04-24T08:30:10;0.65;;;0.50;;
27303;SDS011;14791;52.392;13.092;2023-04-24T08:32:39;0.62;;;0.62;;
27303;SDS011;14791;52.392;13.092;2023-04-24T08:35:08;0.50;;;0.50;;
27303;SDS011;14791;52.392;13.092;2023-04-24T08:37:37;0.70;;;0.70;;
27303;SDS011;14791;52.392;13.092;2023-04-24T08:40:10;0.50;;;0.50;;
27303;SDS011;14791;52.392;13.092;2023-04-24T08:42:38;0.65;;;0.57;;
27303;SDS011;14791;52.392;13.092;2023-04-24T08:45:10;0.42;;;0.42;;
27303;SDS011;14791;52.392;13.092;2023-04-24T08:47:40;0.50;;;0.50;;
27303;SDS011;14791;52.392;13.092;2023-04-24T08:50:09;0.72;;;0.37;;
27303;SDS011;14791;52.392;13.092;2023-04-24T08:52:39;0.57;;;0.57;;
27303;SDS011;14791;52.392;13.092;2023-04-24T08:55:10;0.65;;;0.65;;
27303;SDS011;14791;52.392;13.092;2023-04-24T08:57:39;0.60;;;0.57;;
27303;SDS011;14791;52.392;13.092;2023-04-24T09:00:08;0.28;;;0.28;;
27303;SDS011;14791;52.392;13.092;2023-04-24T09:02:44;0.40;;;0.40;;
27303;SDS011;14791;52.392;13.092;2023-04-24T09:05:17;0.40;;;0.40;;
27303;SDS011;14791;52.392;13.092;2023-04-24T09:07:49;0.40;;;0.40;;
27303;SDS011;14791;52.392;13.092;2023-04-24T09:10:24;0.30;;;0.30;;
27303;SDS011;14791;52.392;13.092;2023-04-24T09:12:54;0.40;;;0.40;;
27303;SDS011;14791;52.392;13.092;2023-04-24T09:15:25;0.33;;;0.33;;
27303;SDS011;14791;52.392;13.092;2023-04-24T09:17:54;0.40;;;0.40;;
27303;SDS011;14791;52.392;13.092;2023-04-24T09:20:23;0.25;;;0.25;;
27303;SDS011;14791;52.392;13.092;2023-04-24T09:22:56;0.50;;;0.50;;
27303;SDS011;14791;52.392;13.092;2023-04-24T09:25:36;1.20;;;0.47;;
27303;SDS011;14791;52.392;13.092;2023-04-24T09:28:01;0.68;;;0.68;;
27303;SDS011;14791;52.392;13.092;2023-04-24T09:30:31;0.70;;;0.70;;
27303;SDS011;14791;52.392;13.092;2023-04-24T09:33:19;0.75;;;0.50;;
27303;SDS011;14791;52.392;13.092;2023-04-24T09:35:52;0.60;;;0.60;;
27303;SDS011;14791;52.392;13.092;2023-04-24T09:38:41;0.50;;;0.50;;
27303;SDS011;14791;52.392;13.092;2023-04-24T09:41:06;0.62;;;0.62;;
27303;SDS011;14791;52.392;13.092;2023-04-24T09:43:35;0.50;;;0.50;;
27303;SDS011;14791;52.392;13.092;2023-04-24T09:46:07;0.85;;;0.80;;
27303;SDS011;14791;52.392;13.092;2023-04-24T09:48:37;0.55;;;0.55;;
27303;SDS011;14791;52.392;13.092;2023-04-24T09:51:07;0.50;;;0.50;;
27303;SDS011;14791;52.392;13.092;2023-04-24T09:53:37;0.53;;;0.53;;
27303;SDS011;14791;52.392;13.092;2023-04-24T09:56:08;0.57;;;0.55;;
27303;SDS011;14791;52.392;13.092;2023-04-24T09:58:39;0.70;;;0.40;;
27303;SDS011;14791;52.392;13.092;2023-04-24T10:01:08;0.37;;;0.37;;
27303;SDS011;14791;52.392;13.092;2023-04-24T10:03:37;1.05;;;0.50;;
27303;SDS011;14791;52.392;13.092;2023-04-24T10:06:07;1.17;;;0.60;;
27303;SDS011;14791;52.392;13.092;2023-04-24T10:08:39;0.40;;;0.40;;
27303;SDS011;14791;52.392;13.092;2023-04-24T10:11:08;0.37;;;0.37;;
27303;SDS011;14791;52.392;13.092;2023-04-24T10:13:38;0.30;;;0.30;;
27303;SDS011;14791;52.392;13.092;2023-04-24T10:16:08;0.55;;;0.55;;
27303;SDS011;14791;52.392;13.092;2023-04-24T10:18:37;0.70;;;0.70;;
27303;SDS011;14791;52.392;13.092;2023-04-24T10:21:09;0.70;;;0.70;;
27303;SDS011;14791;52.392;13.092;2023-04-24T10:23:38;0.70;;;0.70;;
27303;SDS011;14791;52.392;13.092;2023-04-24T10:26:09;0.62;;;0.62;;
27303;SDS011;14791;52.392;13.092;2023-04-24T10:28:41;0.57;;;0.57;;
27303;SDS011;14791;52.392;13.092;2023-04-24T10:31:13;0.60;;;0.60;;
27303;SDS011;14791;52.392;13.092;2023-04-24T10:33:42;0.40;;;0.40;;
27303;SDS011;14791;52.392;13.092;2023-04-24T10:36:13;0.88;;;0.88;;
27303;SDS011;14791;52.392;13.092;2023-04-24T10:38:44;0.90;;;0.90;;
27303;SDS011;14791;52.392;13.092;2023-04-24T10:41:16;0.75;;;0.75;;
27303;SDS011;14791;52.392;13.092;2023-04-24T10:46:37;0.60;;;0.60;;
27303;SDS011;14791;52.392;13.092;2023-04-24T10:49:06;0.62;;;0.62;;
27303;SDS011;14791;52.392;13.092;2023-04-24T10:51:45;0.50;;;0.50;;
27303;SDS011;14791;52.392;13.092;2023-04-24T10:54:25;0.75;;;0.47;;
27303;SDS011;14791;52.392;13.092;2023-04-24T10:59:50;0.40;;;0.40;;
27303;SDS011;14791;52.392;13.092;2023-04-24T11:02:39;1.85;;;0.53;;
27303;SDS011;14791;52.392;13.092;2023-04-24T11:05:10;0.45;;;0.40;;
27303;SDS011;14791;52.392;13.092;2023-04-24T11:10:40;0.60;;;0.60;;
27303;SDS011;14791;52.392;13.092;2023-04-24T11:13:10;0.57;;;0.57;;
27303;SDS011;14791;52.392;13.092;2023-04-24T11:15:43;0.60;;;0.60;;
27303;SDS011;14791;52.392;13.092;2023-04-24T11:18:13;0.70;;;0.70;;
27303;SDS011;14791;52.392;13.092;2023-04-24T11:20:43;0.80;;;0.80;;
27303;SDS011;14791;52.392;13.092;2023-04-24T11:23:12;0.80;;;0.80;;
27303;SDS011;14791;52.392;13.092;2023-04-24T11:25:41;0.62;;;0.62;;
27303;SDS011;14791;52.392;13.092;2023-04-24T11:28:14;0.55;;;0.55;;
27303;SDS011;14791;52.392;13.092;2023-04-24T11:30:44;0.80;;;0.50;;
27303;SDS011;14791;52.392;13.092;2023-04-24T11:33:13;0.40;;;0.40;;
27303;SDS011;14791;52.392;13.092;2023-04-24T11:35:45;0.40;;;0.40;;
27303;SDS011;14791;52.392;13.092;2023-04-24T11:38:14;0.40;;;0.40;;
27303;SDS011;14791;52.392;13.092;2023-04-24T11:40:44;0.88;;;0.88;;
27303;SDS011;14791;52.392;13.092;2023-04-24T11:43:16;0.75;;;0.50;;
27303;SDS011;14791;52.392;13.092;2023-04-24T11:45:49;1.47;;;0.70;;
27303;SDS011;14791;52.392;13.092;2023-04-24T11:48:19;0.50;;;0.35;;
27303;SDS011;14791;52.392;13.092;2023-04-24T11:50:48;0.75;;;0.50;;
27303;SDS011;14791;52.392;13.092;2023-04-24T11:53:19;0.60;;;0.60;;
27303;SDS011;14791;52.392;13.092;2023-04-24T11:55:48;0.55;;;0.55;;
27303;SDS011;14791;52.392;13.092;2023-04-24T11:58:20;0.42;;;0.42;;
27303;SDS011;14791;52.392;13.092;2023-04-24T12:01:01;0.60;;;0.60;;
27303;SDS011;14791;52.392;13.092;2023-04-24T12:03:26;0.50;;;0.50;;
27303;SDS011;14791;52.392;13.092;2023-04-24T12:06:08;0.60;;;0.60;;
27303;SDS011;14791;52.392;13.092;2023-04-24T12:08:39;0.33;;;0.33;;
27303;SDS011;14791;52.392;13.092;2023-04-24T12:11:08;0.82;;;0.53;;
27303;SDS011;14791;52.392;13.092;2023-04-24T12:13:37;0.60;;;0.60;;
27303;SDS011;14791;52.392;13.092;2023-04-24T12:16:06;0.40;;;0.40;;
27303;SDS011;14791;52.392;13.092;2023-04-24T12:18:34;0.23;;;0.23;;
27303;SDS011;14791;52.392;13.092;2023-04-24T12:21:18;0.40;;;0.40;;
27303;SDS011;14791;52.392;13.092;2023-04-24T12:23:48;0.55;;;0.40;;
27303;SDS011;14791;52.392;13.092;2023-04-24T12:26:18;0.50;;;0.50;;
27303;SDS011;14791;52.392;13.092;2023-04-24T12:28:49;0.30;;;0.30;;
27303;SDS011;14791;52.392;13.092;2023-04-24T12:31:18;0.28;;;0.28;;
27303;SDS011;14791;52.392;13.092;2023-04-24T12:33:49;0.50;;;0.50;;
27303;SDS011;14791;52.392;13.092;2023-04-24T12:36:18;1.05;;;0.40;;
27303;SDS011;14791;52.392;13.092;2023-04-24T12:38:52;0.37;;;0.37;;
27303;SDS011;14791;52.392;13.092;2023-04-24T12:41:21;0.50;;;0.50;;
27303;SDS011;14791;52.392;13.092;2023-04-24T12:43:53;0.35;;;0.35;;
27303;SDS011;14791;52.392;13.092;2023-04-24T12:46:22;0.30;;;0.30;;
27303;SDS011;14791;52.392;13.092;2023-04-24T12:48:51;0.40;;;0.40;;
27303;SDS011;14791;52.392;13.092;2023-04-24T12:51:20;0.40;;;0.40;;
27303;SDS011;14791;52.392;13.092;2023-04-24T12:53:49;0.30;;;0.30;;
27303;SDS011;14791;52.392;13.092;2023-04-24T12:56:18;0.40;;;0.40;;
27303;SDS011;14791;52.392;13.092;2023-04-24T12:58:48;0.40;;;0.40;;
27303;SDS011;14791;52.392;13.092;2023-04-24T13:01:18;0.30;;;0.30;;
27303;SDS011;14791;52.392;13.092;2023-04-24T13:03:47;0.75;;;0.28;;
27303;SDS011;14791;52.392;13.092;2023-04-24T13:06:16;0.60;;;0.60;;
27303;SDS011;14791;52.392;13.092;2023-04-24T13:08:45;0.72;;;0.57;;
27303;SDS011;14791;52.392;13.092;2023-04-24T13:11:15;0.50;;;0.50;;
27303;SDS011;14791;52.392;13.092;2023-04-24T13:13:44;0.50;;;0.50;;
27303;SDS011;14791;52.392;13.092;2023-04-24T13:16:13;0.30;;;0.30;;
27303;SDS011;14791;52.392;13.092;2023-04-24T13:18:42;0.75;;;0.40;;
27303;SDS011;14791;52.392;13.092;2023-04-24T13:21:11;0.40;;;0.40;;
27303;SDS011;14791;52.392;13.092;2023-04-24T13:23:39;0.30;;;0.30;;
27303;SDS011;14791;52.392;13.092;2023-04-24T13:26:09;0.98;;;0.35;;
27303;SDS011;14791;52.392;13.092;2023-04-24T13:28:38;0.40;;;0.40;;
27303;SDS011;14791;52.392;13.092;2023-04-24T13:31:07;0.50;;;0.50;;
27303;SDS011;14791;52.392;13.092;2023-04-24T13:33:36;0.50;;;0.50;;
27303;SDS011;14791;52.392;13.092;2023-04-24T13:36:05;0.35;;;0.35;;
27303;SDS011;14791;52.392;13.092;2023-04-24T13:38:34;0.40;;;0.40;;
27303;SDS011;14791;52.392;13.092;2023-04-24T13:41:02;0.53;;;0.53;;
27303;SDS011;14791;52.392;13.092;2023-04-24T13:43:31;0.33;;;0.33;;
27303;SDS011;14791;52.392;13.092;2023-04-24T13:46:00;0.50;;;0.50;;
27303;SDS011;14791;52.392;13.092;2023-04-24T13:48:30;0.53;;;0.53;;
27303;SDS011;14791;52.392;13.092;2023-04-24T13:50:58;0.50;;;0.50;;
27303;SDS011;14791;52.392;13.092;2023-04-24T13:53:27;0.60;;;0.60;;
27303;SDS011;14791;52.392;13.092;2023-04-24T13:55:56;0.55;;;0.55;;
27303;SDS011;14791;52.392;13.092;2023-04-24T13:58:26;0.53;;;0.53;;
27303;SDS011;14791;52.392;13.092;2023-04-24T14:00:55;0.50;;;0.50;;
27303;SDS011;14791;52.392;13.092;2023-04-24T14:03:24;0.20;;;0.20;;
27303;SDS011;14791;52.392;13.092;2023-04-24T14:05:53;0.60;;;0.60;;
27303;SDS011;14791;52.392;13.092;2023-04-24T14:08:22;0.30;;;0.30;;
27303;SDS011;14791;52.392;13.092;2023-04-24T14:10:52;0.60;;;0.60;;
27303;SDS011;14791;52.392;13.092;2023-04-24T14:13:21;0.37;;;0.37;;
27303;SDS011;14791;52.392;13.092;2023-04-24T14:15:50;0.45;;;0.45;;
27303;SDS011;14791;52.392;13.092;2023-04-24T14:18:20;0.60;;;0.60;;
27303;SDS011;14791;52.392;13.092;2023-04-24T14:20:49;0.50;;;0.50;;
27303;SDS011;14791;52.392;13.092;2023-04-24T14:23:18;2.55;;;0.75;;
27303;SDS011;14791;52.392;13.092;2023-04-24T14:25:47;0.65;;;0.65;;
27303;SDS011;14791;52.392;13.092;2023-04-24T14:28:18;0.98;;;0.75;;
27303;SDS011;14791;52.392;13.092;2023-04-24T14:30:47;0.60;;;0.60;;
27303;SDS011;14791;52.392;13.092;2023-04-24T14:33:17;0.65;;;0.45;;
27303;SDS011;14791;52.392;13.092;2023-04-24T14:35:46;0.65;;;0.65;;
27303;SDS011;14791;52.392;13.092;2023-04-24T14:38:16;0.57;;;0.57;;
27303;SDS011;14791;52.392;13.092;2023-04-24T14:40:45;0.60;;;0.60;;
27303;SDS011;14791;52.392;13.092;2023-04-24T14:43:14;1.00;;;1.00;;
27303;SDS011;14791;52.392;13.092;2023-04-24T14:45:43;0.60;;;0.60;;
27303;SDS011;14791;52.392;13.092;2023-04-24T14:48:12;0.90;;;0.70;;
27303;SDS011;14791;52.392;13.092;2023-04-24T14:50:43;0.60;;;0.60;;
27303;SDS011;14791;52.392;13.092;2023-04-24T14:53:12;0.60;;;0.60;;
27303;SDS011;14791;52.392;13.092;2023-04-24T14:55:42;0.65;;;0.65;;
27303;SDS011;14791;52.392;13.092;2023-04-24T14:58:11;0.62;;;0.50;;